createdAt,value
2018-04-17T00:01:04.525Z,9.50
2018-04-17T00:03:32.922Z,9.50
2018-04-17T00:06:01.396Z,9.50
2018-04-17T00:08:28.948Z,9.60
2018-04-17T00:10:57.578Z,9.60
2018-04-17T00:16:03.849Z,9.50
2018-04-17T00:18:32.166Z,9.50
2018-04-17T00:20:59.767Z,9.50
2018-04-17T00:23:29.065Z,9.60
2018-04-17T00:26:08.710Z,9.50
2018-04-17T00:28:39.422Z,9.50
2018-04-17T00:31:12.304Z,9.50
2018-04-17T00:36:24.722Z,9.50
2018-04-17T00:38:58.595Z,9.60
2018-04-17T00:41:33.981Z,9.50
2018-04-17T00:44:01.549Z,9.60
2018-04-17T00:46:29.412Z,9.60
2018-04-17T00:48:58.394Z,9.60
2018-04-17T00:51:29.709Z,9.60
2018-04-17T00:54:16.170Z,9.60
2018-04-17T00:56:43.747Z,9.60
2018-04-17T00:59:13.896Z,9.60
2018-04-17T01:01:41.934Z,9.60
2018-04-17T01:07:30.686Z,9.70
2018-04-17T01:10:03.307Z,9.70
2018-04-17T01:12:39.093Z,9.70
2018-04-17T01:15:06.645Z,9.70
2018-04-17T01:17:34.651Z,9.70
2018-04-17T01:20:02.203Z,9.80
2018-04-17T01:22:35.813Z,9.80
2018-04-17T01:25:04.297Z,9.80
2018-04-17T01:27:33.368Z,9.90
2018-04-17T01:30:01.378Z,9.90
2018-04-17T01:32:30.139Z,9.90
2018-04-17T01:34:58.433Z,9.90
2018-04-17T01:37:25.992Z,9.90
2018-04-17T01:39:54.344Z,10.00
2018-04-17T01:42:24.202Z,9.90
2018-04-17T01:44:56.440Z,9.90
2018-04-17T01:47:24.043Z,10.00
2018-04-17T01:49:53.255Z,10.00
2018-04-17T01:52:21.259Z,10.00
2018-04-17T01:54:49.497Z,10.10
2018-04-17T01:57:17.060Z,10.20
2018-04-17T01:59:46.323Z,10.20
2018-04-17T02:02:16.510Z,10.10
2018-04-17T02:05:06.483Z,10.20
2018-04-17T02:07:34.654Z,10.10
2018-04-17T02:10:02.955Z,10.10
2018-04-17T02:12:31.454Z,10.10
2018-04-17T02:14:59.576Z,10.20
2018-04-17T02:17:27.118Z,10.20
2018-04-17T02:20:02.808Z,10.30
2018-04-17T02:22:30.362Z,10.30
2018-04-17T02:24:57.950Z,10.30
2018-04-17T02:27:26.021Z,10.30
2018-04-17T02:29:57.501Z,10.20
2018-04-17T02:32:25.861Z,10.30
2018-04-17T02:34:56.324Z,10.30
2018-04-17T02:37:24.156Z,10.20
2018-04-17T02:39:53.736Z,10.20
2018-04-17T02:42:21.312Z,10.10
2018-04-17T02:44:50.223Z,10.10
2018-04-17T02:47:18.063Z,10.10
2018-04-17T02:49:45.628Z,10.10
2018-04-17T02:52:13.189Z,10.10
2018-04-17T02:54:45.031Z,10.20
2018-04-17T02:57:19.253Z,10.10
2018-04-17T02:59:47.728Z,10.20
2018-04-17T03:02:15.994Z,10.10
2018-04-17T03:04:46.532Z,10.10
2018-04-17T03:07:14.775Z,10.10
2018-04-17T03:09:50.612Z,10.10
2018-04-17T03:12:23.424Z,10.10
2018-04-17T03:14:59.827Z,10.20
2018-04-17T03:17:29.792Z,10.20
2018-04-17T03:20:01.911Z,10.20
2018-04-17T03:22:32.430Z,10.00
2018-04-17T03:25:04.807Z,10.00
2018-04-17T03:27:33.066Z,10.10
2018-04-17T03:30:00.950Z,10.10
2018-04-17T03:32:29.725Z,10.10
2018-04-17T03:34:57.292Z,10.00
2018-04-17T03:37:24.857Z,10.10
2018-04-17T03:39:53.286Z,10.10
2018-04-17T03:42:26.447Z,10.20
2018-04-17T03:44:59.023Z,10.20
2018-04-17T03:47:32.915Z,10.20
2018-04-17T03:50:03.938Z,10.30
2018-04-17T03:52:32.472Z,10.20
2018-04-17T03:55:00.422Z,10.30
2018-04-17T03:57:29.989Z,10.30
2018-04-17T03:59:59.506Z,10.30
2018-04-17T04:02:32.953Z,10.30
2018-04-17T04:05:06.447Z,10.30
2018-04-17T04:07:39.717Z,10.30
2018-04-17T04:10:11.733Z,10.30
2018-04-17T04:12:40.073Z,10.30
2018-04-17T04:15:11.151Z,10.30
2018-04-17T04:17:53.459Z,10.20
2018-04-17T04:20:36.229Z,10.20
2018-04-17T04:26:26.900Z,10.20
2018-04-17T04:28:59.710Z,10.20
2018-04-17T04:31:27.242Z,10.20
2018-04-17T04:33:54.798Z,10.30
2018-04-17T04:36:23.563Z,10.20
2018-04-17T04:39:13.946Z,10.20
2018-04-17T04:41:42.872Z,10.20
2018-04-17T04:44:10.451Z,10.20
2018-04-17T04:46:38.009Z,10.30
2018-04-17T04:49:07.477Z,10.20
2018-04-17T04:51:35.029Z,10.20
2018-04-17T04:54:03.503Z,10.30
2018-04-17T04:56:33.163Z,10.20
2018-04-17T04:59:06.850Z,10.20
2018-04-17T05:01:36.137Z,10.10
2018-04-17T05:04:05.075Z,10.10
2018-04-17T05:06:32.629Z,10.10
2018-04-17T05:09:03.762Z,10.10
2018-04-17T05:11:37.498Z,10.00
2018-04-17T05:14:05.164Z,10.00
2018-04-17T05:16:32.722Z,9.90
2018-04-17T05:19:01.498Z,9.80
2018-04-17T05:21:30.694Z,9.90
2018-04-17T05:24:00.675Z,9.80
2018-04-17T05:26:28.339Z,9.80
2018-04-17T05:28:55.917Z,9.80
2018-04-17T05:31:23.461Z,9.90
2018-04-17T05:33:51.014Z,9.90
2018-04-17T05:36:18.557Z,9.90
2018-04-17T05:38:49.741Z,9.90
2018-04-17T05:41:17.961Z,10.00
2018-04-17T05:43:46.509Z,10.00
2018-04-17T05:46:14.670Z,10.00
2018-04-17T05:48:42.980Z,10.10
2018-04-17T05:51:14.362Z,10.10
2018-04-17T05:54:08.669Z,10.10
2018-04-17T05:56:36.240Z,10.30
2018-04-17T05:59:03.786Z,10.40
2018-04-17T06:01:35.812Z,10.40
2018-04-17T06:04:03.942Z,10.40
2018-04-17T06:06:31.486Z,10.50
2018-04-17T06:09:00.865Z,10.60
2018-04-17T06:11:29.861Z,10.60
2018-04-17T06:14:05.128Z,10.60
2018-04-17T06:16:35.070Z,10.70
2018-04-17T06:19:08.672Z,10.80
2018-04-17T06:21:40.318Z,10.90
2018-04-17T06:24:08.935Z,10.90
2018-04-17T06:26:36.500Z,10.90
2018-04-17T06:29:04.243Z,11.00
2018-04-17T06:31:35.930Z,11.10
2018-04-17T06:34:06.247Z,11.10
2018-04-17T06:36:37.731Z,11.10
2018-04-17T06:39:07.373Z,11.20
2018-04-17T06:41:34.938Z,11.20
2018-04-17T06:44:08.029Z,11.30
2018-04-17T06:46:37.869Z,11.40
2018-04-17T06:49:06.291Z,11.40
2018-04-17T06:51:34.611Z,11.40
2018-04-17T06:54:03.081Z,11.40
2018-04-17T06:56:52.656Z,11.50
2018-04-17T06:59:25.546Z,11.60
2018-04-17T07:01:53.876Z,11.70
2018-04-17T07:04:21.434Z,11.80
2018-04-17T07:06:48.990Z,11.90
2018-04-17T07:09:16.557Z,12.00
2018-04-17T07:11:49.225Z,12.20
2018-04-17T07:14:24.519Z,12.20
2018-04-17T07:16:53.827Z,12.40
2018-04-17T07:19:21.556Z,12.50
2018-04-17T07:21:51.518Z,12.70
2018-04-17T07:24:21.054Z,12.70
2018-04-17T07:26:52.443Z,13.40
2018-04-17T07:29:23.554Z,13.40
2018-04-17T07:31:55.729Z,13.90
2018-04-17T07:34:24.219Z,13.90
2018-04-17T07:36:52.260Z,14.10
2018-04-17T07:39:20.862Z,14.00
2018-04-17T07:42:14.003Z,13.90
2018-04-17T07:44:41.941Z,13.80
2018-04-17T07:47:34.687Z,13.80
2018-04-17T07:50:06.573Z,13.70
2018-04-17T07:52:37.134Z,14.00
2018-04-17T07:55:06.782Z,14.00
2018-04-17T07:57:57.921Z,14.10
2018-04-17T08:00:26.491Z,14.20
2018-04-17T08:02:57.938Z,14.20
2018-04-17T08:05:27.637Z,14.40
2018-04-17T08:07:56.510Z,14.40
2018-04-17T08:10:24.222Z,14.50
2018-04-17T08:12:53.198Z,14.70
2018-04-17T08:15:23.521Z,14.80
2018-04-17T08:17:55.963Z,14.80
2018-04-17T08:20:24.712Z,14.70
2018-04-17T08:22:52.257Z,14.60
2018-04-17T08:25:19.792Z,14.50
2018-04-17T08:28:16.312Z,14.60
2018-04-17T08:30:45.425Z,14.60
2018-04-17T08:33:13.324Z,14.80
2018-04-17T08:35:40.944Z,15.00
2018-04-17T08:38:08.481Z,15.00
2018-04-17T08:40:39.064Z,15.30
2018-04-17T08:43:29.995Z,15.60
2018-04-17T08:45:57.560Z,15.80
2018-04-17T08:48:25.319Z,16.10
2018-04-17T08:50:54.539Z,16.00
2018-04-17T08:53:22.119Z,16.20
2018-04-17T08:55:49.694Z,16.10
2018-04-17T08:58:17.900Z,16.10
2018-04-17T09:00:49.862Z,16.20
2018-04-17T09:03:17.435Z,16.20
2018-04-17T09:05:45.749Z,16.50
2018-04-17T09:08:13.307Z,16.50
2018-04-17T09:10:41.972Z,16.50
2018-04-17T09:13:13.397Z,16.40
2018-04-17T09:15:42.341Z,16.70
2018-04-17T09:18:14.446Z,16.70
2018-04-17T09:20:42.049Z,16.90
2018-04-17T09:23:09.730Z,16.90
2018-04-17T09:25:37.579Z,17.00
2018-04-17T09:28:25.926Z,17.20
2018-04-17T09:30:55.340Z,17.20
2018-04-17T09:33:22.904Z,17.20
2018-04-17T09:35:53.327Z,17.10
2018-04-17T09:38:21.599Z,17.10
2018-04-17T09:40:49.612Z,16.90
2018-04-17T09:43:17.478Z,17.00
2018-04-17T09:45:45.043Z,17.00
2018-04-17T09:48:16.630Z,17.10
2018-04-17T09:50:46.885Z,17.20
2018-04-17T09:53:15.798Z,17.30
2018-04-17T09:55:44.370Z,17.50
2018-04-17T09:58:23.490Z,17.70
2018-04-17T10:00:56.709Z,17.60
2018-04-17T10:03:24.293Z,17.50
2018-04-17T10:05:53.036Z,17.40
2018-04-17T10:08:22.101Z,17.40
2018-04-17T10:10:49.684Z,17.40
2018-04-17T10:13:46.453Z,17.30
2018-04-17T10:16:14.088Z,17.40
2018-04-17T10:18:47.746Z,17.50
2018-04-17T10:21:18.398Z,17.50
2018-04-17T10:23:46.482Z,17.50
2018-04-17T10:26:14.054Z,17.60
2018-04-17T10:28:42.037Z,17.70
2018-04-17T10:31:10.204Z,17.60
2018-04-17T10:33:39.774Z,17.40
2018-04-17T10:36:07.665Z,17.20
2018-04-17T10:38:35.365Z,17.20
2018-04-17T10:41:04.024Z,17.40
2018-04-17T10:43:46.619Z,17.70
2018-04-17T10:46:14.178Z,17.90
2018-04-17T10:48:44.566Z,17.90
2018-04-17T10:51:14.633Z,18.00
2018-04-17T10:53:45.422Z,18.00
2018-04-17T10:56:13.925Z,18.20
2018-04-17T10:58:41.517Z,18.20
2018-04-17T11:01:10.611Z,18.20
2018-04-17T11:03:38.655Z,18.10
2018-04-17T11:06:06.601Z,18.00
2018-04-17T11:08:35.650Z,18.10
2018-04-17T11:11:03.208Z,18.10
2018-04-17T11:13:34.870Z,18.30
2018-04-17T11:16:10.501Z,18.40
2018-04-17T11:18:38.060Z,18.50
2018-04-17T11:21:05.883Z,18.50
2018-04-17T11:23:33.536Z,18.80
2018-04-17T11:26:01.216Z,19.30
2018-04-17T11:28:29.583Z,20.50
2018-04-17T11:31:05.396Z,20.40
2018-04-17T11:33:39.004Z,20.70
2018-04-17T11:36:06.551Z,20.70
2018-04-17T11:38:34.108Z,20.40
2018-04-17T11:41:01.661Z,20.40
2018-04-17T11:43:29.205Z,20.10
2018-04-17T11:45:58.179Z,19.60
2018-04-17T11:48:26.041Z,19.30
2018-04-17T11:50:53.811Z,19.10
2018-04-17T11:53:21.938Z,19.20
2018-04-17T11:55:51.801Z,19.20
2018-04-17T11:58:25.971Z,19.30
2018-04-17T12:00:58.889Z,19.30
2018-04-17T12:03:27.231Z,19.40
2018-04-17T12:05:55.065Z,19.40
2018-04-17T12:08:22.632Z,19.30
2018-04-17T12:10:50.425Z,19.20
2018-04-17T12:13:19.161Z,19.00
2018-04-17T12:16:10.538Z,19.70
2018-04-17T12:18:38.341Z,19.70
2018-04-17T12:21:07.803Z,19.40
2018-04-17T12:23:40.027Z,19.40
2018-04-17T12:26:08.347Z,19.40
2018-04-17T12:28:36.996Z,19.60
2018-04-17T12:31:31.047Z,20.10
2018-04-17T12:34:03.547Z,20.10
2018-04-17T12:36:32.999Z,19.70
2018-04-17T12:39:00.782Z,19.70
2018-04-17T12:41:28.341Z,19.60
2018-04-17T12:43:56.699Z,19.90
2018-04-17T12:46:27.015Z,19.80
2018-04-17T12:49:02.532Z,19.80
2018-04-17T12:51:39.526Z,19.60
2018-04-17T12:54:11.803Z,19.30
2018-04-17T12:56:45.856Z,19.20
2018-04-17T12:59:13.693Z,18.80
2018-04-17T13:01:41.876Z,18.60
2018-04-17T13:04:09.489Z,18.50
2018-04-17T13:06:37.815Z,18.20
2018-04-17T13:09:08.264Z,18.20
2018-04-17T13:11:35.844Z,18.20
2018-04-17T13:14:04.839Z,18.30
2018-04-17T13:16:33.432Z,18.40
2018-04-17T13:19:01.747Z,18.50
2018-04-17T13:21:31.765Z,18.40
2018-04-17T13:24:00.026Z,18.60
2018-04-17T13:26:28.119Z,18.70
2018-04-17T13:28:56.009Z,18.60
2018-04-17T13:31:31.325Z,18.60
2018-04-17T13:33:59.107Z,18.60
2018-04-17T13:36:32.793Z,18.70
2018-04-17T13:39:01.824Z,18.90
2018-04-17T13:41:29.412Z,19.20
2018-04-17T13:43:56.986Z,19.10
2018-04-17T13:46:24.756Z,19.20
2018-04-17T13:48:52.445Z,19.10
2018-04-17T13:51:20.413Z,19.00
2018-04-17T13:53:48.733Z,19.00
2018-04-17T13:56:17.295Z,19.00
2018-04-17T13:58:44.857Z,19.00
2018-04-17T14:01:15.282Z,18.70
2018-04-17T14:03:42.918Z,18.70
2018-04-17T14:06:11.379Z,18.60
2018-04-17T14:08:44.943Z,18.70
2018-04-17T14:11:13.279Z,18.70
2018-04-17T14:13:40.838Z,18.70
2018-04-17T14:16:08.787Z,18.70
2018-04-17T14:18:36.382Z,18.70
2018-04-17T14:21:03.961Z,18.60
2018-04-17T14:23:32.003Z,18.60
2018-04-17T14:26:04.652Z,18.70
2018-04-17T14:28:32.771Z,18.90
2018-04-17T14:31:00.896Z,18.80
2018-04-17T14:33:28.461Z,18.60
2018-04-17T14:36:00.080Z,18.60
2018-04-17T14:38:28.193Z,18.50
2018-04-17T14:40:58.231Z,18.60
2018-04-17T14:43:25.791Z,18.60
2018-04-17T14:45:53.388Z,18.50
2018-04-17T14:48:21.904Z,18.50
2018-04-17T14:50:53.813Z,18.40
2018-04-17T14:53:30.198Z,18.40
2018-04-17T14:56:01.914Z,18.40
2018-04-17T14:58:29.492Z,18.20
2018-04-17T15:00:57.079Z,18.20
2018-04-17T15:03:24.879Z,18.20
2018-04-17T15:05:52.442Z,18.10
2018-04-17T15:08:24.400Z,18.00
2018-04-17T15:10:56.784Z,18.20
2018-04-17T15:13:24.701Z,18.40
2018-04-17T15:15:52.285Z,18.40
2018-04-17T15:18:40.832Z,18.50
2018-04-17T15:21:08.390Z,18.60
2018-04-17T15:23:35.968Z,18.60
2018-04-17T15:26:04.032Z,18.70
2018-04-17T15:28:31.998Z,18.70
2018-04-17T15:30:59.572Z,18.80
2018-04-17T15:33:27.828Z,18.70
2018-04-17T15:35:56.833Z,18.50
2018-04-17T15:38:24.935Z,18.50
2018-04-17T15:40:54.171Z,18.30
2018-04-17T15:43:22.724Z,18.30
2018-04-17T15:45:51.707Z,18.30
2018-04-17T15:48:55.011Z,18.50
2018-04-17T15:51:22.606Z,18.50
2018-04-17T15:53:50.533Z,18.40
2018-04-17T15:56:25.241Z,18.40
2018-04-17T15:58:55.019Z,18.30
2018-04-17T16:01:22.568Z,18.20
2018-04-17T16:03:50.132Z,18.20
2018-04-17T16:06:19.048Z,18.10
2018-04-17T16:08:48.325Z,18.00
2018-04-17T16:11:17.756Z,18.10
2018-04-17T16:13:45.861Z,18.10
2018-04-17T16:16:14.798Z,18.10
2018-04-17T16:18:55.938Z,18.20
2018-04-17T16:21:25.087Z,18.10
2018-04-17T16:23:53.990Z,18.10
2018-04-17T16:26:21.929Z,18.00
2018-04-17T16:28:52.486Z,17.90
2018-04-17T16:31:20.734Z,17.80
2018-04-17T16:33:50.230Z,17.80
2018-04-17T16:36:18.214Z,17.80
2018-04-17T16:38:46.869Z,17.80
2018-04-17T16:41:15.211Z,17.90
2018-04-17T16:43:42.790Z,17.80
2018-04-17T16:46:10.367Z,17.80
2018-04-17T16:48:39.257Z,17.70
2018-04-17T16:51:07.935Z,17.70
2018-04-17T16:53:37.746Z,17.80
2018-04-17T16:56:06.537Z,17.80
2018-04-17T16:58:36.345Z,17.70
2018-04-17T17:01:03.903Z,17.70
2018-04-17T17:03:31.455Z,17.70
2018-04-17T17:06:02.404Z,17.70
2018-04-17T17:08:30.290Z,17.60
2018-04-17T17:10:58.309Z,17.50
2018-04-17T17:13:27.341Z,17.50
2018-04-17T17:16:09.562Z,17.50
2018-04-17T17:18:37.129Z,17.50
2018-04-17T17:21:06.700Z,17.40
2018-04-17T17:23:37.645Z,17.30
2018-04-17T17:26:09.727Z,17.30
2018-04-17T17:28:37.298Z,17.30
2018-04-17T17:31:05.155Z,17.30
2018-04-17T17:33:32.713Z,17.30
2018-04-17T17:36:01.455Z,17.30
2018-04-17T17:38:31.312Z,17.30
2018-04-17T17:41:03.385Z,17.30
2018-04-17T17:43:32.082Z,17.30
2018-04-17T17:45:59.629Z,17.30
2018-04-17T17:48:27.926Z,17.20
2018-04-17T17:50:56.854Z,17.10
2018-04-17T17:53:25.356Z,17.20
2018-04-17T17:55:58.738Z,17.20
2018-04-17T17:58:29.983Z,17.10
2018-04-17T18:08:01.575Z,17.00
2018-04-17T18:10:29.734Z,16.80
2018-04-17T18:13:06.797Z,16.70
2018-04-17T18:15:38.652Z,16.70
2018-04-17T18:18:09.747Z,16.70
2018-04-17T18:20:37.536Z,16.70
2018-04-17T18:23:27.443Z,16.60
2018-04-17T18:25:59.308Z,16.60
2018-04-17T18:28:26.873Z,16.40
2018-04-17T18:30:55.490Z,16.30
2018-04-17T18:33:24.156Z,16.30
2018-04-17T18:35:51.804Z,16.40
2018-04-17T18:38:22.390Z,16.20
2018-04-17T18:40:50.694Z,16.20
2018-04-17T18:43:18.345Z,16.20
2018-04-17T18:45:45.898Z,16.20
2018-04-17T18:48:15.094Z,16.10
2018-04-17T18:50:45.433Z,16.10
2018-04-17T18:53:35.164Z,16.10
2018-04-17T18:56:04.681Z,16.10
2018-04-17T18:58:38.539Z,16.10
2018-04-17T19:01:10.499Z,16.00
2018-04-17T19:06:19.802Z,16.00
2018-04-17T19:08:48.725Z,16.00
2018-04-17T19:11:16.581Z,15.90
2018-04-17T19:13:44.865Z,15.90
2018-04-17T19:16:27.243Z,15.80
2018-04-17T19:18:56.065Z,15.80
2018-04-17T19:21:39.383Z,15.60
2018-04-17T19:24:09.131Z,15.60
2018-04-17T19:29:56.427Z,15.70
2018-04-17T19:32:24.967Z,15.70
2018-04-17T19:34:52.865Z,15.70
2018-04-17T19:37:20.910Z,15.70
2018-04-17T19:39:49.114Z,15.60
2018-04-17T19:42:19.130Z,15.70
2018-04-17T19:44:47.245Z,15.60
2018-04-17T19:47:15.054Z,15.60
2018-04-17T19:49:43.026Z,15.60
2018-04-17T19:52:14.526Z,15.50
2018-04-17T19:54:44.478Z,15.50
2018-04-17T19:57:15.197Z,15.50
2018-04-17T19:59:44.724Z,15.40
2018-04-17T20:02:21.550Z,15.40
2018-04-17T20:04:56.938Z,15.40
2018-04-17T20:07:28.900Z,15.40
2018-04-17T20:10:04.460Z,15.40
2018-04-17T20:12:41.300Z,15.50
2018-04-17T20:15:13.745Z,15.40
2018-04-17T20:17:45.052Z,15.40
2018-04-17T20:20:18.171Z,15.50
2018-04-17T20:22:49.215Z,15.50
2018-04-17T20:26:00.827Z,15.40
2018-04-17T20:28:30.605Z,15.40
2018-04-17T20:31:02.871Z,15.40
2018-04-17T20:33:35.468Z,15.40
2018-04-17T20:36:05.966Z,15.40
2018-04-17T20:38:36.300Z,15.30
2018-04-17T20:41:04.540Z,15.40
2018-04-17T20:43:39.210Z,15.40
2018-04-17T20:46:13.190Z,15.40
2018-04-17T20:48:46.408Z,15.30
2018-04-17T20:51:21.407Z,15.20
2018-04-17T20:53:59.139Z,15.20
2018-04-17T20:56:29.863Z,15.20
2018-04-17T21:01:40.170Z,15.10
2018-04-17T21:04:17.636Z,14.90
2018-04-17T21:06:48.740Z,14.80
2018-04-17T21:09:21.546Z,14.70
2018-04-17T21:11:49.395Z,14.60
2018-04-17T21:14:16.956Z,14.50
2018-04-17T21:16:44.530Z,14.40
2018-04-17T21:19:12.976Z,14.30
2018-04-17T21:21:41.843Z,14.20
2018-04-17T21:24:09.436Z,14.10
2018-04-17T21:26:37.817Z,14.10
2018-04-17T21:29:05.692Z,13.90
2018-04-17T21:31:33.268Z,13.90
2018-04-17T21:34:01.059Z,13.90
2018-04-17T21:36:29.786Z,13.80
2018-04-17T21:39:01.705Z,13.70
2018-04-17T21:41:33.482Z,13.60
2018-04-17T21:44:08.086Z,13.60
2018-04-17T21:46:38.759Z,13.50
2018-04-17T21:49:09.360Z,13.50
2018-04-17T21:51:40.209Z,13.40
2018-04-17T21:54:11.344Z,13.40
2018-04-17T21:57:22.046Z,13.40
2018-04-17T21:59:52.885Z,13.40
2018-04-17T22:02:21.430Z,13.20
2018-04-17T22:04:52.131Z,13.20
2018-04-17T22:07:27.885Z,13.20
2018-04-17T22:09:56.205Z,13.20
2018-04-17T22:12:28.397Z,13.20
2018-04-17T22:14:59.075Z,13.20
2018-04-17T22:17:26.929Z,13.20
2018-04-17T22:19:55.702Z,13.10
2018-04-17T22:22:25.901Z,13.10
2018-04-17T22:24:55.637Z,13.00
2018-04-17T22:27:45.496Z,13.00
2018-04-17T22:30:13.074Z,13.00
2018-04-17T22:32:46.415Z,13.00
2018-04-17T22:35:16.145Z,12.90
2018-04-17T22:37:46.345Z,12.90
2018-04-17T22:40:15.413Z,12.90
2018-04-17T22:42:44.483Z,12.90
2018-04-17T22:45:15.329Z,12.90
2018-04-17T22:47:42.899Z,12.80
2018-04-17T22:50:10.677Z,12.80
2018-04-17T22:52:41.728Z,12.80
2018-04-17T22:55:11.160Z,12.90
2018-04-17T22:58:02.751Z,12.90
2018-04-17T23:00:30.596Z,13.00
2018-04-17T23:02:58.201Z,13.10
2018-04-17T23:05:26.234Z,13.10
2018-04-17T23:07:55.460Z,13.00
2018-04-17T23:10:23.597Z,13.00
2018-04-17T23:13:33.287Z,12.90
2018-04-17T23:16:00.855Z,12.90
2018-04-17T23:18:30.068Z,12.90
2018-04-17T23:21:00.321Z,12.80
2018-04-17T23:23:30.435Z,12.80
2018-04-17T23:26:00.823Z,12.60
2018-04-17T23:28:52.100Z,12.50
2018-04-17T23:31:21.467Z,12.60
2018-04-17T23:33:50.399Z,12.50
2018-04-17T23:36:21.943Z,12.40
2018-04-17T23:38:50.199Z,12.30
2018-04-17T23:41:19.909Z,12.20
2018-04-17T23:43:49.335Z,12.20
2018-04-17T23:46:17.146Z,12.10
2018-04-17T23:48:45.284Z,12.10
2018-04-17T23:51:14.940Z,12.10
2018-04-17T23:53:44.189Z,12.10
2018-04-17T23:56:13.251Z,12.00
2018-04-17T23:58:44.971Z,12.10
